sensor_id;sensor_type;location;lat;lon;timestamp;pressure;altitude;pressure_sealevel;temperature;humidity
46614;BME280;32338;50.430;6.806;2024-03-02T00:00:30;66036.63;;;5.65;100.00
46614;BME280;32338;50.430;6.806;2024-03-02T00:02:56;66032.69;;;5.61;100.00
46614;BME280;32338;50.430;6.806;2024-03-02T00:05:24;66036.25;;;5.67;100.00
46614;BME280;32338;50.430;6.806;2024-03-02T00:07:53;66027.84;;;5.59;100.00
46614;BME280;32338;50.430;6.806;2024-03-02T00:10:22;66041.66;;;5.69;100.00
46614;BME280;32338;50.430;6.806;2024-03-02T00:12:50;66038.84;;;5.67;100.00
46614;BME280;32338;50.430;6.806;2024-03-02T00:15:40;66036.25;;;5.67;100.00
46614;BME280;32338;50.430;6.806;2024-03-02T00:18:08;66033.09;;;5.66;100.00
46614;BME280;32338;50.430;6.806;2024-03-02T00:20:38;66037.38;;;5.68;100.00
46614;BME280;32338;50.430;6.806;2024-03-02T00:23:06;66034.22;;;5.67;100.00
46614;BME280;32338;50.430;6.806;2024-03-02T00:25:38;66043.34;;;5.71;100.00
46614;BME280;32338;50.430;6.806;2024-03-02T00:28:11;66033.66;;;5.67;100.00
46614;BME280;32338;50.430;6.806;2024-03-02T00:30:52;66029.38;;;5.65;100.00
46614;BME280;32338;50.430;6.806;2024-03-02T00:33:21;66034.03;;;5.65;100.00
46614;BME280;32338;50.430;6.806;2024-03-02T00:35:50;66040.56;;;5.68;100.00
46614;BME280;32338;50.430;6.806;2024-03-02T00:38:17;66036.03;;;5.64;100.00
46614;BME280;32338;50.430;6.806;2024-03-02T00:40:44;66027.50;;;5.61;100.00
46614;BME280;32338;50.430;6.806;2024-03-02T00:43:29;66031.41;;;5.65;100.00
46614;BME280;32338;50.430;6.806;2024-03-02T00:46:01;66031.00;;;5.60;100.00
46614;BME280;32338;50.430;6.806;2024-03-02T00:48:28;66027.50;;;5.61;100.00
46614;BME280;32338;50.430;6.806;2024-03-02T00:50:58;66028.22;;;5.57;100.00
46614;BME280;32338;50.430;6.806;2024-03-02T00:53:26;66019.97;;;5.52;100.00
46614;BME280;32338;50.430;6.806;2024-03-02T00:55:53;66032.91;;;5.64;100.00
46614;BME280;32338;50.430;6.806;2024-03-02T00:58:19;66029.75;;;5.63;100.00
46614;BME280;32338;50.430;6.806;2024-03-02T01:00:46;66030.84;;;5.64;100.00
46614;BME280;32338;50.430;6.806;2024-03-02T01:03:13;66030.44;;;5.59;100.00
46614;BME280;32338;50.430;6.806;2024-03-02T01:05:41;66036.63;;;5.65;100.00
46614;BME280;32338;50.430;6.806;2024-03-02T01:08:09;66028.63;;;5.62;100.00
46614;BME280;32338;50.430;6.806;2024-03-02T01:10:36;66035.50;;;5.64;100.00
46614;BME280;32338;50.430;6.806;2024-03-02T01:13:02;66032.91;;;5.64;100.00
46614;BME280;32338;50.430;6.806;2024-03-02T01:15:29;66034.56;;;5.65;100.00
46614;BME280;32338;50.430;6.806;2024-03-02T01:17:56;66027.50;;;5.61;100.00
46614;BME280;32338;50.430;6.806;2024-03-02T01:20:23;66039.63;;;5.70;100.00
46614;BME280;32338;50.430;6.806;2024-03-02T01:22:50;66032.53;;;5.66;100.00
46614;BME280;32338;50.430;6.806;2024-03-02T01:25:18;66030.66;;;5.62;100.00
46614;BME280;32338;50.430;6.806;2024-03-02T01:27:45;66035.34;;;5.68;100.00
46614;BME280;32338;50.430;6.806;2024-03-02T01:30:12;66043.72;;;5.69;100.00
46614;BME280;32338;50.430;6.806;2024-03-02T01:32:38;66046.38;;;5.76;100.00
46614;BME280;32338;50.430;6.806;2024-03-02T01:35:06;66052.91;;;5.80;100.00
46614;BME280;32338;50.430;6.806;2024-03-02T01:37:33;66050.84;;;5.80;100.00
46614;BME280;32338;50.430;6.806;2024-03-02T01:40:00;66049.72;;;5.79;100.00
46614;BME280;32338;50.430;6.806;2024-03-02T01:42:29;66050.63;;;5.78;100.00
46614;BME280;32338;50.430;6.806;2024-03-02T01:44:56;66057.16;;;5.81;100.00
46614;BME280;32338;50.430;6.806;2024-03-02T01:47:22;66045.22;;;5.75;100.00
46614;BME280;32338;50.430;6.806;2024-03-02T01:49:49;66049.50;;;5.77;100.00
46614;BME280;32338;50.430;6.806;2024-03-02T01:52:16;66056.09;;;5.88;100.00
46614;BME280;32338;50.430;6.806;2024-03-02T01:54:42;66070.28;;;5.96;100.00
46614;BME280;32338;50.430;6.806;2024-03-02T01:57:09;66064.66;;;5.91;100.00
46614;BME280;32338;50.430;6.806;2024-03-02T01:59:37;66063.56;;;5.90;100.00
46614;BME280;32338;50.430;6.806;2024-03-02T02:02:04;66063.38;;;5.94;100.00
46614;BME280;32338;50.430;6.806;2024-03-02T02:04:31;66066.38;;;5.92;100.00
46614;BME280;32338;50.430;6.806;2024-03-02T02:06:59;66058.34;;;5.90;100.00
46614;BME280;32338;50.430;6.806;2024-03-02T02:09:26;66063.19;;;5.92;100.00
46614;BME280;32338;50.430;6.806;2024-03-02T02:11:53;66069.03;;;5.99;100.00
46614;BME280;32338;50.430;6.806;2024-03-02T02:14:19;66079.69;;;6.09;100.00
46614;BME280;32338;50.430;6.806;2024-03-02T02:16:47;66073.94;;;6.09;100.00
46614;BME280;32338;50.430;6.806;2024-03-02T02:19:14;66075.41;;;6.08;100.00
46614;BME280;32338;50.430;6.806;2024-03-02T02:21:43;66086.00;;;6.10;100.00
46614;BME280;32338;50.430;6.806;2024-03-02T02:24:10;66081.16;;;6.08;100.00
46614;BME280;32338;50.430;6.806;2024-03-02T02:26:38;66073.88;;;6.02;100.00
46614;BME280;32338;50.430;6.806;2024-03-02T02:29:05;66076.47;;;6.02;100.00
46614;BME280;32338;50.430;6.806;2024-03-02T02:31:37;66080.97;;;6.06;100.00
46614;BME280;32338;50.430;6.806;2024-03-02T02:34:04;66080.97;;;6.06;100.00
46614;BME280;32338;50.430;6.806;2024-03-02T02:36:31;66078.56;;;6.08;100.00
46614;BME280;32338;50.430;6.806;2024-03-02T02:39:00;66079.84;;;6.05;100.00
46614;BME280;32338;50.430;6.806;2024-03-02T02:41:28;66076.69;;;6.04;100.00
46614;BME280;32338;50.430;6.806;2024-03-02T02:43:55;66077.81;;;6.05;100.00
46614;BME280;32338;50.430;6.806;2024-03-02T02:46:22;66078.34;;;6.06;100.00
46614;BME280;32338;50.430;6.806;2024-03-02T02:48:48;66082.66;;;6.07;100.00
46614;BME280;32338;50.430;6.806;2024-03-02T02:51:16;66076.88;;;6.07;100.00
46614;BME280;32338;50.430;6.806;2024-03-02T02:53:43;66080.00;;;6.00;100.00
46614;BME280;32338;50.430;6.806;2024-03-02T02:56:11;66071.28;;;6.02;100.00
46614;BME280;32338;50.430;6.806;2024-03-02T02:58:39;66063.75;;;5.92;100.00
46614;BME280;32338;50.430;6.806;2024-03-02T03:01:06;66072.53;;;5.98;100.00
46614;BME280;32338;50.430;6.806;2024-03-02T03:03:32;66077.81;;;6.05;100.00
46614;BME280;32338;50.430;6.806;2024-03-02T03:05:59;66080.59;;;6.08;100.00
46614;BME280;32338;50.430;6.806;2024-03-02T03:08:26;66083.75;;;6.08;100.00
46614;BME280;32338;50.430;6.806;2024-03-02T03:10:52;66086.38;;;6.08;100.00
46614;BME280;32338;50.430;6.806;2024-03-02T03:13:20;66078.00;;;6.08;100.00
46614;BME280;32338;50.430;6.806;2024-03-02T03:15:48;66082.66;;;6.07;100.00
46614;BME280;32338;50.430;6.806;2024-03-02T03:18:14;66080.59;;;6.08;100.00
46614;BME280;32338;50.430;6.806;2024-03-02T03:20:41;66078.00;;;6.08;100.00
46614;BME280;32338;50.430;6.806;2024-03-02T03:23:08;66078.16;;;6.03;100.00
46614;BME280;32338;50.430;6.806;2024-03-02T03:25:34;66078.16;;;6.03;100.00
46614;BME280;32338;50.430;6.806;2024-03-02T03:28:01;66075.00;;;6.03;100.00
46614;BME280;32338;50.430;6.806;2024-03-02T03:30:29;66064.72;;;5.98;100.00
46614;BME280;32338;50.430;6.806;2024-03-02T03:32:56;66072.53;;;5.98;100.00
46614;BME280;32338;50.430;6.806;2024-03-02T03:35:23;66071.41;;;5.97;100.00
46614;BME280;32338;50.430;6.806;2024-03-02T03:37:49;66060.03;;;5.91;100.00
46614;BME280;32338;50.430;6.806;2024-03-02T03:40:16;66052.72;;;5.84;100.00
46614;BME280;32338;50.430;6.806;2024-03-02T03:42:43;66043.56;;;5.74;100.00
46614;BME280;32338;50.430;6.806;2024-03-02T03:45:10;66052.31;;;5.79;100.00
46614;BME280;32338;50.430;6.806;2024-03-02T03:47:38;66045.59;;;5.73;100.00
46614;BME280;32338;50.430;6.806;2024-03-02T03:50:05;66044.31;;;5.77;100.00
46614;BME280;32338;50.430;6.806;2024-03-02T03:52:32;66046.72;;;5.74;100.00
46614;BME280;32338;50.430;6.806;2024-03-02T03:54:59;66032.91;;;5.64;100.00
46614;BME280;32338;50.430;6.806;2024-03-02T03:57:26;66034.38;;;5.63;100.00
46614;BME280;32338;50.430;6.806;2024-03-02T03:59:52;66029.53;;;5.61;100.00
46614;BME280;32338;50.430;6.806;2024-03-02T04:02:19;66028.41;;;5.60;100.00
46614;BME280;32338;50.430;6.806;2024-03-02T04:04:47;66035.50;;;5.64;100.00
46614;BME280;32338;50.430;6.806;2024-03-02T04:07:14;66036.25;;;5.67;100.00
46614;BME280;32338;50.430;6.806;2024-03-02T04:09:40;66034.56;;;5.65;100.00
46614;BME280;32338;50.430;6.806;2024-03-02T04:12:07;66035.16;;;5.66;100.00
46614;BME280;32338;50.430;6.806;2024-03-02T04:14:34;66020.22;;;5.55;100.00
46614;BME280;32338;50.430;6.806;2024-03-02T04:17:00;66019.44;;;5.51;100.00
46614;BME280;32338;50.430;6.806;2024-03-02T04:19:27;66016.97;;;5.47;100.00
46614;BME280;32338;50.430;6.806;2024-03-02T04:21:55;66016.03;;;5.41;100.00
46614;BME280;32338;50.430;6.806;2024-03-02T04:24:22;66006.88;;;5.38;100.00
46614;BME280;32338;50.430;6.806;2024-03-02T04:26:48;66005.41;;;5.39;100.00
46614;BME280;32338;50.430;6.806;2024-03-02T04:29:15;66003.16;;;5.36;100.00
46614;BME280;32338;50.430;6.806;2024-03-02T04:31:41;66008.00;;;5.39;100.00
46614;BME280;32338;50.430;6.806;2024-03-02T04:34:08;66000.38;;;5.34;100.00
46614;BME280;32338;50.430;6.806;2024-03-02T04:36:35;65995.69;;;5.27;100.00
46614;BME280;32338;50.430;6.806;2024-03-02T04:39:03;65989.34;;;5.26;100.00
46614;BME280;32338;50.430;6.806;2024-03-02T04:41:35;65994.75;;;5.29;100.00
46614;BME280;32338;50.430;6.806;2024-03-02T04:44:01;65980.94;;;5.18;100.00
46614;BME280;32338;50.430;6.806;2024-03-02T04:46:28;65982.22;;;5.15;100.00
46614;BME280;32338;50.430;6.806;2024-03-02T04:48:55;65974.91;;;5.08;100.00
46614;BME280;32338;50.430;6.806;2024-03-02T04:51:22;65979.03;;;5.14;100.00
46614;BME280;32338;50.430;6.806;2024-03-02T04:53:49;65979.81;;;5.17;100.00
46614;BME280;32338;50.430;6.806;2024-03-02T04:56:17;65977.94;;;5.13;100.00
46614;BME280;32338;50.430;6.806;2024-03-02T04:59:04;65974.56;;;5.10;100.00
46614;BME280;32338;50.430;6.806;2024-03-02T05:01:31;65968.41;;;5.05;100.00
46614;BME280;32338;50.430;6.806;2024-03-02T05:03:58;65969.31;;;5.03;100.00
46614;BME280;32338;50.430;6.806;2024-03-02T05:06:24;65960.34;;;4.95;100.00
46614;BME280;32338;50.430;6.806;2024-03-02T05:08:51;65966.50;;;5.00;100.00
46614;BME280;32338;50.430;6.806;2024-03-02T05:11:19;65962.22;;;4.99;100.00
46614;BME280;32338;50.430;6.806;2024-03-02T05:14:04;65968.56;;;5.00;100.00
46614;BME280;32338;50.430;6.806;2024-03-02T05:16:32;65969.31;;;5.03;100.00
46614;BME280;32338;50.430;6.806;2024-03-02T05:18:59;65967.84;;;5.04;100.00
46614;BME280;32338;50.430;6.806;2024-03-02T05:21:26;65970.09;;;5.06;100.00
46614;BME280;32338;50.430;6.806;2024-03-02T05:23:52;65967.63;;;5.01;100.00
46614;BME280;32338;50.430;6.806;2024-03-02T05:26:20;65962.59;;;4.97;100.00
46614;BME280;32338;50.430;6.806;2024-03-02T05:28:47;65969.50;;;5.06;100.00
46614;BME280;32338;50.430;6.806;2024-03-02T05:31:15;65955.50;;;4.93;100.00
46614;BME280;32338;50.430;6.806;2024-03-02T05:33:42;65953.03;;;4.88;100.00
46614;BME280;32338;50.430;6.806;2024-03-02T05:36:09;65955.16;;;4.95;100.00
46614;BME280;32338;50.430;6.806;2024-03-02T05:38:35;65958.50;;;4.98;100.00
46614;BME280;32338;50.430;6.806;2024-03-02T05:41:02;65951.03;;;4.89;100.00
46614;BME280;32338;50.430;6.806;2024-03-02T05:43:31;65956.28;;;4.96;100.00
46614;BME280;32338;50.430;6.806;2024-03-02T05:45:58;65951.94;;;4.87;100.00
46614;BME280;32338;50.430;6.806;2024-03-02T05:48:24;65937.22;;;4.78;100.00
46614;BME280;32338;50.430;6.806;2024-03-02T05:50:51;65946.91;;;4.82;100.00
46614;BME280;32338;50.430;6.806;2024-03-02T05:53:18;65923.00;;;4.63;100.00
46614;BME280;32338;50.430;6.806;2024-03-02T05:55:44;65911.22;;;4.52;100.00
46614;BME280;32338;50.430;6.806;2024-03-02T05:58:11;65909.75;;;4.53;100.00
46614;BME280;32338;50.430;6.806;2024-03-02T06:00:52;65911.00;;;4.49;100.00
46614;BME280;32338;50.430;6.806;2024-03-02T06:03:19;65909.53;;;4.50;100.00
46614;BME280;32338;50.430;6.806;2024-03-02T06:05:46;65908.22;;;4.47;100.00
46614;BME280;32338;50.430;6.806;2024-03-02T06:08:14;65913.66;;;4.57;100.00
46614;BME280;32338;50.430;6.806;2024-03-02T06:10:41;65921.09;;;4.59;100.00
46614;BME280;32338;50.430;6.806;2024-03-02T06:13:07;65906.75;;;4.48;100.00
46614;BME280;32338;50.430;6.806;2024-03-02T06:15:34;65898.53;;;4.43;100.00
46614;BME280;32338;50.430;6.806;2024-03-02T06:18:03;65907.09;;;4.46;100.00
46614;BME280;32338;50.430;6.806;2024-03-02T06:20:31;65906.75;;;4.48;100.00
46614;BME280;32338;50.430;6.806;2024-03-02T06:22:58;65908.63;;;4.52;100.00
46614;BME280;32338;50.430;6.806;2024-03-02T06:25:25;65891.97;;;4.32;100.00
46614;BME280;32338;50.430;6.806;2024-03-02T06:27:51;65880.63;;;4.26;100.00
46614;BME280;32338;50.430;6.806;2024-03-02T06:30:18;65883.00;;;4.24;100.00
46614;BME280;32338;50.430;6.806;2024-03-02T06:32:44;65878.72;;;4.22;100.00
46614;BME280;32338;50.430;6.806;2024-03-02T06:35:13;65877.97;;;4.19;100.00
46614;BME280;32338;50.430;6.806;2024-03-02T06:37:39;65875.16;;;4.16;100.00
46614;BME280;32338;50.430;6.806;2024-03-02T06:40:07;65877.81;;;4.24;100.00
46614;BME280;32338;50.430;6.806;2024-03-02T06:42:34;65880.75;;;4.21;100.00
46614;BME280;32338;50.430;6.806;2024-03-02T06:45:01;65888.59;;;4.29;100.00
46614;BME280;32338;50.430;6.806;2024-03-02T06:47:28;65902.06;;;4.41;100.00
46614;BME280;32338;50.430;6.806;2024-03-02T06:49:55;65897.56;;;4.37;100.00
46614;BME280;32338;50.430;6.806;2024-03-02T06:52:24;65893.84;;;4.36;100.00
46614;BME280;32338;50.430;6.806;2024-03-02T06:54:50;65904.31;;;4.43;100.00
46614;BME280;32338;50.430;6.806;2024-03-02T06:57:17;65900.72;;;4.37;100.00
46614;BME280;32338;50.430;6.806;2024-03-02T06:59:45;65897.56;;;4.37;100.00
46614;BME280;32338;50.430;6.806;2024-03-02T07:02:12;65898.13;;;4.37;100.00
46614;BME280;32338;50.430;6.806;2024-03-02T07:04:38;65896.44;;;4.36;100.00
46614;BME280;32338;50.430;6.806;2024-03-02T07:07:05;65899.47;;;4.41;100.00
46614;BME280;32338;50.430;6.806;2024-03-02T07:09:33;65904.84;;;4.44;100.00
46614;BME280;32338;50.430;6.806;2024-03-02T07:12:00;65897.34;;;4.34;100.00
46614;BME280;32338;50.430;6.806;2024-03-02T07:14:27;65902.59;;;4.42;100.00
46614;BME280;32338;50.430;6.806;2024-03-02T07:17:20;65906.53;;;4.45;100.00
46614;BME280;32338;50.430;6.806;2024-03-02T07:19:46;65920.91;;;4.56;100.00
46614;BME280;32338;50.430;6.806;2024-03-02T07:22:13;65925.59;;;4.63;100.00
46614;BME280;32338;50.430;6.806;2024-03-02T07:24:41;65924.88;;;4.67;100.00
46614;BME280;32338;50.430;6.806;2024-03-02T07:27:08;65911.72;;;4.45;100.00
46614;BME280;32338;50.430;6.806;2024-03-02T07:29:35;65916.44;;;4.52;100.00
46614;BME280;32338;50.430;6.806;2024-03-02T07:32:02;65919.06;;;4.59;100.00
46614;BME280;32338;50.430;6.806;2024-03-02T07:34:29;65932.88;;;4.69;100.00
46614;BME280;32338;50.430;6.806;2024-03-02T07:36:56;65930.06;;;4.67;100.00
46614;BME280;32338;50.430;6.806;2024-03-02T07:39:23;65936.09;;;4.77;100.00
46614;BME280;32338;50.430;6.806;2024-03-02T07:41:51;65944.78;;;4.76;100.00
46614;BME280;32338;50.430;6.806;2024-03-02T07:44:18;65950.25;;;4.85;100.00
46614;BME280;32338;50.430;6.806;2024-03-02T07:46:46;65941.84;;;4.78;100.00
46614;BME280;32338;50.430;6.806;2024-03-02T07:49:12;65948.91;;;4.82;100.00
46614;BME280;32338;50.430;6.806;2024-03-02T07:51:39;65962.03;;;4.96;100.00
46614;BME280;32338;50.430;6.806;2024-03-02T07:54:06;65962.22;;;4.99;100.00
46614;BME280;32338;50.430;6.806;2024-03-02T07:56:32;65968.19;;;5.02;100.00
46614;BME280;32338;50.430;6.806;2024-03-02T07:59:01;65960.19;;;4.99;100.00
46614;BME280;32338;50.430;6.806;2024-03-02T08:01:27;65980.53;;;5.13;100.00
46614;BME280;32338;50.430;6.806;2024-03-02T08:03:55;65986.91;;;5.22;100.00
46614;BME280;32338;50.430;6.806;2024-03-02T08:06:23;65994.91;;;5.24;100.00
46614;BME280;32338;50.430;6.806;2024-03-02T08:08:53;65995.09;;;5.27;100.00
46614;BME280;32338;50.430;6.806;2024-03-02T08:11:20;65999.03;;;5.30;100.00
46614;BME280;32338;50.430;6.806;2024-03-02T08:13:46;65997.00;;;5.31;100.00
46614;BME280;32338;50.430;6.806;2024-03-02T08:16:14;65998.69;;;5.32;100.00
46614;BME280;32338;50.430;6.806;2024-03-02T08:18:41;66012.16;;;5.45;100.00
46614;BME280;32338;50.430;6.806;2024-03-02T08:21:08;66012.69;;;5.45;100.00
46614;BME280;32338;50.430;6.806;2024-03-02T08:23:35;66017.56;;;5.47;100.00
46614;BME280;32338;50.430;6.806;2024-03-02T08:26:02;66011.94;;;5.42;100.00
46614;BME280;32338;50.430;6.806;2024-03-02T08:28:29;65996.63;;;5.33;100.00
46614;BME280;32338;50.430;6.806;2024-03-02T08:30:56;65999.59;;;5.31;100.00
46614;BME280;32338;50.430;6.806;2024-03-02T08:33:24;65998.31;;;5.34;100.00
46614;BME280;32338;50.430;6.806;2024-03-02T08:35:50;66009.50;;;5.38;100.00
46614;BME280;32338;50.430;6.806;2024-03-02T08:38:17;66006.34;;;5.37;100.00
46614;BME280;32338;50.430;6.806;2024-03-02T08:40:43;66007.66;;;5.41;100.00
46614;BME280;32338;50.430;6.806;2024-03-02T08:43:10;66028.22;;;5.57;100.00
46614;BME280;32338;50.430;6.806;2024-03-02T08:45:37;66040.97;;;5.74;100.00
46614;BME280;32338;50.430;6.806;2024-03-02T08:48:06;66031.97;;;5.65;100.00
46614;BME280;32338;50.430;6.806;2024-03-02T08:50:35;66037.38;;;5.68;100.00
46614;BME280;32338;50.430;6.806;2024-03-02T08:53:02;66027.63;;;5.57;100.00
46614;BME280;32338;50.430;6.806;2024-03-02T08:55:29;66029.88;;;5.59;100.00
46614;BME280;32338;50.430;6.806;2024-03-02T08:57:56;66034.22;;;5.67;100.00
46614;BME280;32338;50.430;6.806;2024-03-02T09:00:23;66033.25;;;5.62;100.00
46614;BME280;32338;50.430;6.806;2024-03-02T09:02:50;66050.84;;;5.80;100.00
46614;BME280;32338;50.430;6.806;2024-03-02T09:05:17;66075.34;;;6.00;100.00
46614;BME280;32338;50.430;6.806;2024-03-02T09:07:45;66094.44;;;6.18;100.00
46614;BME280;32338;50.430;6.806;2024-03-02T09:10:11;66099.50;;;6.23;100.00
46614;BME280;32338;50.430;6.806;2024-03-02T09:12:38;66106.63;;;6.34;100.00
46614;BME280;32338;50.430;6.806;2024-03-02T09:15:06;66112.25;;;6.39;100.00
46614;BME280;32338;50.430;6.806;2024-03-02T09:17:33;66118.41;;;6.45;100.00
46614;BME280;32338;50.430;6.806;2024-03-02T09:19:59;66121.59;;;6.45;100.00
46614;BME280;32338;50.430;6.806;2024-03-02T09:22:26;66136.34;;;6.54;100.00
46614;BME280;32338;50.430;6.806;2024-03-02T09:24:54;66167.06;;;6.87;100.00
46614;BME280;32338;50.430;6.806;2024-03-02T09:27:21;66149.25;;;6.66;100.00
46614;BME280;32338;50.430;6.806;2024-03-02T09:29:47;66167.97;;;6.86;100.00
46614;BME280;32338;50.430;6.806;2024-03-02T09:32:14;66157.88;;;6.76;100.00
46614;BME280;32338;50.430;6.806;2024-03-02T09:34:41;66175.84;;;6.93;100.00
46614;BME280;32338;50.430;6.806;2024-03-02T09:37:08;66217.97;;;7.32;100.00
46614;BME280;32338;50.430;6.806;2024-03-02T09:39:35;66230.34;;;7.43;100.00
46614;BME280;32338;50.430;6.806;2024-03-02T09:42:04;66240.09;;;7.54;100.00
46614;BME280;32338;50.430;6.806;2024-03-02T09:44:31;66235.03;;;7.50;100.00
46614;BME280;32338;50.430;6.806;2024-03-02T09:46:59;66197.94;;;7.16;100.00
46614;BME280;32338;50.430;6.806;2024-03-02T09:49:25;66192.34;;;7.10;100.00
46614;BME280;32338;50.430;6.806;2024-03-02T09:51:52;66176.41;;;6.93;100.00
46614;BME280;32338;50.430;6.806;2024-03-02T09:54:19;66175.28;;;6.92;100.00
46614;BME280;32338;50.430;6.806;2024-03-02T09:56:46;66189.34;;;7.05;100.00
46614;BME280;32338;50.430;6.806;2024-03-02T09:59:14;66208.97;;;7.23;100.00
46614;BME280;32338;50.430;6.806;2024-03-02T10:01:55;66183.16;;;7.00;100.00
46614;BME280;32338;50.430;6.806;2024-03-02T10:04:22;66189.53;;;7.08;100.00
46614;BME280;32338;50.430;6.806;2024-03-02T10:06:50;66198.53;;;7.16;100.00
46614;BME280;32338;50.430;6.806;2024-03-02T10:09:26;66200.97;;;7.21;100.00
46614;BME280;32338;50.430;6.806;2024-03-02T10:12:03;66200.56;;;7.16;100.00
46614;BME280;32338;50.430;6.806;2024-03-02T10:14:31;66210.88;;;7.27;100.00
46614;BME280;32338;50.430;6.806;2024-03-02T10:17:02;66230.00;;;7.45;100.00
46614;BME280;32338;50.430;6.806;2024-03-02T10:19:29;66257.53;;;7.70;100.00
46614;BME280;32338;50.430;6.806;2024-03-02T10:21:58;66270.81;;;7.80;100.00
46614;BME280;32338;50.430;6.806;2024-03-02T10:24:25;66255.88;;;7.76;100.00
46614;BME280;32338;50.430;6.806;2024-03-02T10:26:52;66266.50;;;7.78;100.00
46614;BME280;32338;50.430;6.806;2024-03-02T10:29:19;66269.88;;;7.82;100.00
46614;BME280;32338;50.430;6.806;2024-03-02T10:31:47;66268.75;;;7.81;100.00
46614;BME280;32338;50.430;6.806;2024-03-02T10:34:13;66272.34;;;7.86;100.00
46614;BME280;32338;50.430;6.806;2024-03-02T10:36:42;66279.44;;;7.90;100.00
46614;BME280;32338;50.430;6.806;2024-03-02T10:39:09;66294.41;;;8.02;100.00
46614;BME280;32338;50.430;6.806;2024-03-02T10:41:37;66284.31;;;7.92;100.00
46614;BME280;32338;50.430;6.806;2024-03-02T10:44:05;66304.91;;;8.09;100.00
46614;BME280;32338;50.430;6.806;2024-03-02T10:46:33;66312.25;;;8.23;100.00
46614;BME280;32338;50.430;6.806;2024-03-02T10:49:02;66334.53;;;8.41;100.00
46614;BME280;32338;50.430;6.806;2024-03-02T10:51:30;66331.72;;;8.38;100.00
46614;BME280;32338;50.430;6.806;2024-03-02T10:53:58;66297.97;;;8.07;100.00
46614;BME280;32338;50.430;6.806;2024-03-02T10:56:28;66254.34;;;7.70;100.00
46614;BME280;32338;50.430;6.806;2024-03-02T10:58:58;66276.44;;;7.85;100.00
46614;BME280;32338;50.430;6.806;2024-03-02T11:01:28;66309.94;;;8.14;100.00
46614;BME280;32338;50.430;6.806;2024-03-02T11:03:56;66320.28;;;8.25;100.00
46614;BME280;32338;50.430;6.806;2024-03-02T11:06:26;66318.78;;;8.26;100.00
46614;BME280;32338;50.430;6.806;2024-03-02T11:08:55;66327.59;;;8.32;100.00
46614;BME280;32338;50.430;6.806;2024-03-02T11:11:29;66316.91;;;8.22;100.00
46614;BME280;32338;50.430;6.806;2024-03-02T11:13:57;66322.69;;;8.23;100.00
46614;BME280;32338;50.430;6.806;2024-03-02T11:16:34;66323.84;;;8.31;100.00
46614;BME280;32338;50.430;6.806;2024-03-02T11:19:04;66336.78;;;8.43;100.00
46614;BME280;32338;50.430;6.806;2024-03-02T11:21:33;66306.63;;;8.18;100.00
46614;BME280;32338;50.430;6.806;2024-03-02T11:24:01;66295.94;;;8.08;100.00
46614;BME280;32338;50.430;6.806;2024-03-02T11:26:49;66301.72;;;8.08;100.00
46614;BME280;32338;50.430;6.806;2024-03-02T11:29:42;66314.66;;;8.20;100.00
46614;BME280;32338;50.430;6.806;2024-03-02T11:32:14;66344.69;;;8.50;100.00
46614;BME280;32338;50.430;6.806;2024-03-02T11:34:42;66318.59;;;8.24;100.00
46614;BME280;32338;50.430;6.806;2024-03-02T11:37:13;66336.59;;;8.40;100.00
46614;BME280;32338;50.430;6.806;2024-03-02T11:39:42;66343.56;;;8.49;100.00
46614;BME280;32338;50.430;6.806;2024-03-02T11:42:10;66358.75;;;8.63;100.00
46614;BME280;32338;50.430;6.806;2024-03-02T11:44:39;66339.81;;;8.48;100.00
46614;BME280;32338;50.430;6.806;2024-03-02T11:47:08;66381.22;;;8.84;100.00
46614;BME280;32338;50.430;6.806;2024-03-02T11:49:37;66420.63;;;9.20;100.00
46614;BME280;32338;50.430;6.806;2024-03-02T11:52:06;66450.66;;;9.50;100.00
46614;BME280;32338;50.430;6.806;2024-03-02T11:54:35;66455.91;;;9.57;100.00
46614;BME280;32338;50.430;6.806;2024-03-02T11:57:05;66476.00;;;9.73;100.00
46614;BME280;32338;50.430;6.806;2024-03-02T11:59:32;66448.19;;;9.45;100.00
46614;BME280;32338;50.430;6.806;2024-03-02T12:01:59;66441.66;;;9.41;100.00
46614;BME280;32338;50.430;6.806;2024-03-02T12:04:26;66473.34;;;9.66;100.00
46614;BME280;32338;50.430;6.806;2024-03-02T12:06:54;66442.03;;;9.39;100.00
46614;BME280;32338;50.430;6.806;2024-03-02T12:09:21;66438.84;;;9.39;100.00
46614;BME280;32338;50.430;6.806;2024-03-02T12:12:01;66439.00;;;9.34;100.00
46614;BME280;32338;50.430;6.806;2024-03-02T12:14:28;66424.00;;;9.23;100.00
46614;BME280;32338;50.430;6.806;2024-03-02T12:16:55;66442.22;;;9.42;100.00
46614;BME280;32338;50.430;6.806;2024-03-02T12:19:23;66486.50;;;9.80;100.00
46614;BME280;32338;50.430;6.806;2024-03-02T12:21:50;66531.16;;;10.16;100.00
46614;BME280;32338;50.430;6.806;2024-03-02T12:24:17;66548.47;;;10.37;100.00
46614;BME280;32338;50.430;6.806;2024-03-02T12:26:44;66578.13;;;10.62;100.00
46614;BME280;32338;50.430;6.806;2024-03-02T12:29:13;66565.00;;;10.54;100.00
46614;BME280;32338;50.430;6.806;2024-03-02T12:31:41;66521.97;;;10.13;100.00
46614;BME280;32338;50.430;6.806;2024-03-02T12:34:08;66540.19;;;10.32;100.00
46614;BME280;32338;50.430;6.806;2024-03-02T12:36:37;66556.56;;;10.47;100.00
46614;BME280;32338;50.430;6.806;2024-03-02T12:39:04;66550.34;;;10.41;100.00
46614;BME280;32338;50.430;6.806;2024-03-02T12:41:31;66550.94;;;10.42;100.00
46614;BME280;32338;50.430;6.806;2024-03-02T12:43:57;66577.56;;;10.61;100.00
46614;BME280;32338;50.430;6.806;2024-03-02T12:46:25;66563.88;;;10.53;100.00
46614;BME280;32338;50.430;6.806;2024-03-02T12:48:52;66600.50;;;10.87;100.00
46614;BME280;32338;50.430;6.806;2024-03-02T12:51:19;66554.09;;;10.42;100.00
46614;BME280;32338;50.430;6.806;2024-03-02T12:53:53;66586.94;;;10.67;100.00
46614;BME280;32338;50.430;6.806;2024-03-02T12:56:19;66590.16;;;10.75;100.00
46614;BME280;32338;50.430;6.806;2024-03-02T12:58:46;66653.28;;;11.33;100.00
46614;BME280;32338;50.430;6.806;2024-03-02T13:01:15;66658.34;;;11.38;100.00
46614;BME280;32338;50.430;6.806;2024-03-02T13:03:48;66679.44;;;11.59;100.00